sensor_id;sensor_type;location;lat;lon;timestamp;P1;durP1;ratioP1;P2;durP2;ratioP2
70169;SDS011;57543;45.442;9.212;2022-10-19T00:01:35;44.17;;;23.93;;
70169;SDS011;57543;45.442;9.212;2022-10-19T00:04:39;45.97;;;23.90;;
70169;SDS011;57543;45.442;9.212;2022-10-19T00:07:42;45.58;;;24.30;;
70169;SDS011;57543;45.442;9.212;2022-10-19T00:10:45;43.78;;;23.08;;
70169;SDS011;57543;45.442;9.212;2022-10-19T00:13:50;47.97;;;24.58;;
70169;SDS011;57543;45.442;9.212;2022-10-19T00:16:54;46.57;;;23.47;;
70169;SDS011;57543;45.442;9.212;2022-10-19T00:19:58;48.10;;;23.70;;
70169;SDS011;57543;45.442;9.212;2022-10-19T00:23:02;45.15;;;24.05;;
70169;SDS011;57543;45.442;9.212;2022-10-19T00:26:06;49.60;;;24.00;;
70169;SDS011;57543;45.442;9.212;2022-10-19T00:29:11;44.88;;;25.13;;
70169;SDS011;57543;45.442;9.212;2022-10-19T00:32:16;49.00;;;25.30;;
70169;SDS011;57543;45.442;9.212;2022-10-19T00:35:19;44.72;;;23.13;;
70169;SDS011;57543;45.442;9.212;2022-10-19T00:38:23;48.40;;;24.20;;
70169;SDS011;57543;45.442;9.212;2022-10-19T00:41:28;46.83;;;24.08;;
70169;SDS011;57543;45.442;9.212;2022-10-19T00:47:37;43.70;;;22.93;;
70169;SDS011;57543;45.442;9.212;2022-10-19T00:50:41;48.40;;;23.88;;
70169;SDS011;57543;45.442;9.212;2022-10-19T00:53:46;45.95;;;24.40;;
70169;SDS011;57543;45.442;9.212;2022-10-19T00:56:51;45.00;;;23.25;;
70169;SDS011;57543;45.442;9.212;2022-10-19T00:59:57;45.53;;;23.05;;
70169;SDS011;57543;45.442;9.212;2022-10-19T01:03:02;42.37;;;23.33;;
70169;SDS011;57543;45.442;9.212;2022-10-19T01:06:07;42.03;;;23.30;;
70169;SDS011;57543;45.442;9.212;2022-10-19T01:09:12;42.03;;;23.83;;
70169;SDS011;57543;45.442;9.212;2022-10-19T01:12:19;44.65;;;22.60;;
70169;SDS011;57543;45.442;9.212;2022-10-19T01:19:02;42.17;;;22.80;;
70169;SDS011;57543;45.442;9.212;2022-10-19T01:32:22;42.95;;;23.63;;
70169;SDS011;57543;45.442;9.212;2022-10-19T01:36:33;42.33;;;22.03;;
70169;SDS011;57543;45.442;9.212;2022-10-19T01:39:17;39.85;;;21.58;;
70169;SDS011;57543;45.442;9.212;2022-10-19T01:42:27;44.53;;;23.45;;
70169;SDS011;57543;45.442;9.212;2022-10-19T01:45:37;43.10;;;21.73;;
70169;SDS011;57543;45.442;9.212;2022-10-19T01:48:47;40.20;;;22.33;;
70169;SDS011;57543;45.442;9.212;2022-10-19T01:51:56;38.90;;;21.10;;
70169;SDS011;57543;45.442;9.212;2022-10-19T01:55:04;40.83;;;21.45;;
70169;SDS011;57543;45.442;9.212;2022-10-19T01:58:12;42.40;;;22.17;;
70169;SDS011;57543;45.442;9.212;2022-10-19T02:01:18;39.45;;;21.23;;
70169;SDS011;57543;45.442;9.212;2022-10-19T02:04:25;42.08;;;22.27;;
70169;SDS011;57543;45.442;9.212;2022-10-19T02:07:28;40.27;;;22.87;;
70169;SDS011;57543;45.442;9.212;2022-10-19T02:10:33;43.03;;;22.25;;
70169;SDS011;57543;45.442;9.212;2022-10-19T02:13:39;41.83;;;22.50;;
70169;SDS011;57543;45.442;9.212;2022-10-19T02:16:49;42.17;;;21.95;;
70169;SDS011;57543;45.442;9.212;2022-10-19T02:19:57;37.38;;;20.83;;
70169;SDS011;57543;45.442;9.212;2022-10-19T02:23:02;40.07;;;20.50;;
70169;SDS011;57543;45.442;9.212;2022-10-19T02:26:07;34.65;;;20.75;;
70169;SDS011;57543;45.442;9.212;2022-10-19T02:29:11;39.03;;;21.38;;
70169;SDS011;57543;45.442;9.212;2022-10-19T02:32:17;35.40;;;19.95;;
70169;SDS011;57543;45.442;9.212;2022-10-19T02:35:21;36.08;;;19.70;;
70169;SDS011;57543;45.442;9.212;2022-10-19T02:38:25;36.73;;;19.90;;
70169;SDS011;57543;45.442;9.212;2022-10-19T02:41:33;36.25;;;19.00;;
70169;SDS011;57543;45.442;9.212;2022-10-19T02:44:46;35.47;;;19.67;;
70169;SDS011;57543;45.442;9.212;2022-10-19T02:51:25;36.92;;;18.95;;
70169;SDS011;57543;45.442;9.212;2022-10-19T02:54:33;32.67;;;19.13;;
70169;SDS011;57543;45.442;9.212;2022-10-19T02:57:36;37.47;;;19.95;;
70169;SDS011;57543;45.442;9.212;2022-10-19T03:00:40;36.63;;;19.20;;
70169;SDS011;57543;45.442;9.212;2022-10-19T03:03:45;37.60;;;19.42;;
70169;SDS011;57543;45.442;9.212;2022-10-19T03:06:48;37.60;;;19.90;;
70169;SDS011;57543;45.442;9.212;2022-10-19T03:09:52;31.73;;;18.77;;
70169;SDS011;57543;45.442;9.212;2022-10-19T03:12:56;35.70;;;19.30;;
70169;SDS011;57543;45.442;9.212;2022-10-19T03:16:10;35.30;;;19.00;;
70169;SDS011;57543;45.442;9.212;2022-10-19T03:19:15;36.92;;;20.10;;
70169;SDS011;57543;45.442;9.212;2022-10-19T03:22:18;34.35;;;19.48;;
70169;SDS011;57543;45.442;9.212;2022-10-19T03:25:22;34.50;;;18.80;;
70169;SDS011;57543;45.442;9.212;2022-10-19T03:28:25;35.70;;;19.00;;
70169;SDS011;57543;45.442;9.212;2022-10-19T03:31:29;40.13;;;20.15;;
70169;SDS011;57543;45.442;9.212;2022-10-19T03:34:33;35.38;;;20.00;;
70169;SDS011;57543;45.442;9.212;2022-10-19T03:37:36;36.03;;;20.20;;
70169;SDS011;57543;45.442;9.212;2022-10-19T03:40:40;36.03;;;19.90;;
70169;SDS011;57543;45.442;9.212;2022-10-19T03:43:44;36.10;;;19.38;;
70169;SDS011;57543;45.442;9.212;2022-10-19T03:46:48;33.65;;;19.60;;
70169;SDS011;57543;45.442;9.212;2022-10-19T03:49:51;37.03;;;19.75;;
70169;SDS011;57543;45.442;9.212;2022-10-19T03:52:55;38.22;;;21.00;;
70169;SDS011;57543;45.442;9.212;2022-10-19T03:56:00;33.57;;;19.43;;
70169;SDS011;57543;45.442;9.212;2022-10-19T03:59:06;35.60;;;20.25;;
70169;SDS011;57543;45.442;9.212;2022-10-19T04:02:09;36.17;;;19.35;;
70169;SDS011;57543;45.442;9.212;2022-10-19T04:05:13;38.67;;;19.98;;
70169;SDS011;57543;45.442;9.212;2022-10-19T04:08:17;40.13;;;20.65;;
70169;SDS011;57543;45.442;9.212;2022-10-19T04:11:22;37.03;;;19.23;;
70169;SDS011;57543;45.442;9.212;2022-10-19T04:14:27;36.85;;;20.15;;
70169;SDS011;57543;45.442;9.212;2022-10-19T04:17:31;38.63;;;20.95;;
70169;SDS011;57543;45.442;9.212;2022-10-19T04:20:35;34.95;;;19.25;;
70169;SDS011;57543;45.442;9.212;2022-10-19T04:23:40;37.00;;;20.35;;
70169;SDS011;57543;45.442;9.212;2022-10-19T04:26:45;37.43;;;20.43;;
70169;SDS011;57543;45.442;9.212;2022-10-19T04:29:50;37.45;;;20.60;;
70169;SDS011;57543;45.442;9.212;2022-10-19T04:32:54;35.88;;;20.48;;
70169;SDS011;57543;45.442;9.212;2022-10-19T04:35:57;38.03;;;19.70;;
70169;SDS011;57543;45.442;9.212;2022-10-19T04:39:04;35.10;;;20.23;;
70169;SDS011;57543;45.442;9.212;2022-10-19T04:42:08;36.17;;;20.00;;
70169;SDS011;57543;45.442;9.212;2022-10-19T04:45:12;35.30;;;19.52;;
70169;SDS011;57543;45.442;9.212;2022-10-19T04:48:16;34.63;;;19.88;;
70169;SDS011;57543;45.442;9.212;2022-10-19T04:51:20;34.55;;;18.98;;
70169;SDS011;57543;45.442;9.212;2022-10-19T04:54:24;34.03;;;19.40;;
70169;SDS011;57543;45.442;9.212;2022-10-19T04:57:28;34.07;;;18.27;;
70169;SDS011;57543;45.442;9.212;2022-10-19T05:00:32;31.85;;;18.20;;
70169;SDS011;57543;45.442;9.212;2022-10-19T05:03:35;34.88;;;20.30;;
70169;SDS011;57543;45.442;9.212;2022-10-19T05:06:39;37.20;;;20.58;;
70169;SDS011;57543;45.442;9.212;2022-10-19T05:09:43;32.58;;;19.88;;
70169;SDS011;57543;45.442;9.212;2022-10-19T05:12:47;35.30;;;19.83;;
70169;SDS011;57543;45.442;9.212;2022-10-19T05:15:58;36.42;;;20.25;;
70169;SDS011;57543;45.442;9.212;2022-10-19T05:19:03;33.30;;;18.88;;
70169;SDS011;57543;45.442;9.212;2022-10-19T05:22:07;37.58;;;18.92;;
70169;SDS011;57543;45.442;9.212;2022-10-19T05:25:11;37.33;;;19.52;;
70169;SDS011;57543;45.442;9.212;2022-10-19T05:28:15;36.07;;;18.97;;
70169;SDS011;57543;45.442;9.212;2022-10-19T05:31:19;35.55;;;18.65;;
70169;SDS011;57543;45.442;9.212;2022-10-19T05:34:23;34.42;;;18.80;;
70169;SDS011;57543;45.442;9.212;2022-10-19T05:37:26;34.85;;;20.42;;
70169;SDS011;57543;45.442;9.212;2022-10-19T05:40:30;34.45;;;19.52;;
70169;SDS011;57543;45.442;9.212;2022-10-19T05:43:33;34.03;;;19.80;;
70169;SDS011;57543;45.442;9.212;2022-10-19T05:46:37;35.88;;;20.40;;
70169;SDS011;57543;45.442;9.212;2022-10-19T05:49:41;36.75;;;20.30;;
70169;SDS011;57543;45.442;9.212;2022-10-19T05:52:44;38.80;;;18.70;;
70169;SDS011;57543;45.442;9.212;2022-10-19T05:55:48;33.75;;;18.77;;
70169;SDS011;57543;45.442;9.212;2022-10-19T05:58:51;36.77;;;19.33;;
70169;SDS011;57543;45.442;9.212;2022-10-19T06:01:55;35.05;;;19.25;;
70169;SDS011;57543;45.442;9.212;2022-10-19T06:04:59;38.85;;;20.52;;
70169;SDS011;57543;45.442;9.212;2022-10-19T06:08:03;35.15;;;19.75;;
70169;SDS011;57543;45.442;9.212;2022-10-19T06:11:08;40.92;;;20.58;;
70169;SDS011;57543;45.442;9.212;2022-10-19T06:14:14;34.87;;;19.17;;
70169;SDS011;57543;45.442;9.212;2022-10-19T06:17:18;36.80;;;20.40;;
70169;SDS011;57543;45.442;9.212;2022-10-19T06:20:22;37.75;;;21.65;;
70169;SDS011;57543;45.442;9.212;2022-10-19T06:23:26;37.15;;;21.25;;
70169;SDS011;57543;45.442;9.212;2022-10-19T06:26:29;36.70;;;19.63;;
70169;SDS011;57543;45.442;9.212;2022-10-19T06:29:34;37.40;;;19.17;;
70169;SDS011;57543;45.442;9.212;2022-10-19T06:32:37;36.45;;;19.80;;
70169;SDS011;57543;45.442;9.212;2022-10-19T06:35:41;35.08;;;18.85;;
70169;SDS011;57543;45.442;9.212;2022-10-19T06:38:45;33.47;;;17.42;;
70169;SDS011;57543;45.442;9.212;2022-10-19T06:41:49;34.28;;;16.92;;
70169;SDS011;57543;45.442;9.212;2022-10-19T06:44:55;30.23;;;16.07;;
70169;SDS011;57543;45.442;9.212;2022-10-19T06:47:59;30.45;;;17.38;;
70169;SDS011;57543;45.442;9.212;2022-10-19T06:51:04;30.10;;;16.55;;
70169;SDS011;57543;45.442;9.212;2022-10-19T06:54:11;32.85;;;16.30;;
70169;SDS011;57543;45.442;9.212;2022-10-19T06:57:15;26.67;;;15.63;;
70169;SDS011;57543;45.442;9.212;2022-10-19T07:00:21;28.70;;;15.27;;
70169;SDS011;57543;45.442;9.212;2022-10-19T07:03:25;26.77;;;14.95;;
70169;SDS011;57543;45.442;9.212;2022-10-19T07:06:30;26.13;;;15.02;;
70169;SDS011;57543;45.442;9.212;2022-10-19T07:09:34;28.35;;;15.50;;
70169;SDS011;57543;45.442;9.212;2022-10-19T07:12:37;29.67;;;14.85;;
70169;SDS011;57543;45.442;9.212;2022-10-19T07:15:41;29.17;;;15.23;;
70169;SDS011;57543;45.442;9.212;2022-10-19T07:18:45;30.67;;;16.00;;
70169;SDS011;57543;45.442;9.212;2022-10-19T07:21:50;30.02;;;15.13;;
70169;SDS011;57543;45.442;9.212;2022-10-19T07:24:54;28.70;;;15.43;;
70169;SDS011;57543;45.442;9.212;2022-10-19T07:27:58;27.35;;;15.25;;
70169;SDS011;57543;45.442;9.212;2022-10-19T07:31:06;34.20;;;17.13;;
70169;SDS011;57543;45.442;9.212;2022-10-19T07:34:11;33.38;;;16.73;;
70169;SDS011;57543;45.442;9.212;2022-10-19T07:37:16;27.65;;;15.07;;
70169;SDS011;57543;45.442;9.212;2022-10-19T07:40:19;29.63;;;14.98;;
70169;SDS011;57543;45.442;9.212;2022-10-19T07:43:22;27.75;;;14.43;;
70169;SDS011;57543;45.442;9.212;2022-10-19T07:46:27;29.90;;;15.50;;
70169;SDS011;57543;45.442;9.212;2022-10-19T07:49:35;28.42;;;15.75;;
70169;SDS011;57543;45.442;9.212;2022-10-19T07:52:39;25.52;;;14.57;;
70169;SDS011;57543;45.442;9.212;2022-10-19T07:55:43;27.20;;;15.30;;
70169;SDS011;57543;45.442;9.212;2022-10-19T07:58:47;23.52;;;12.40;;
70169;SDS011;57543;45.442;9.212;2022-10-19T08:01:52;25.27;;;13.43;;
70169;SDS011;57543;45.442;9.212;2022-10-19T08:04:57;23.58;;;12.25;;
70169;SDS011;57543;45.442;9.212;2022-10-19T08:08:00;21.70;;;12.93;;
70169;SDS011;57543;45.442;9.212;2022-10-19T08:11:08;22.10;;;11.95;;
70169;SDS011;57543;45.442;9.212;2022-10-19T08:14:17;27.30;;;13.50;;
70169;SDS011;57543;45.442;9.212;2022-10-19T08:17:21;24.70;;;12.30;;
70169;SDS011;57543;45.442;9.212;2022-10-19T08:20:25;21.35;;;11.90;;
70169;SDS011;57543;45.442;9.212;2022-10-19T08:23:29;18.88;;;11.23;;
70169;SDS011;57543;45.442;9.212;2022-10-19T08:26:34;19.63;;;11.52;;
70169;SDS011;57543;45.442;9.212;2022-10-19T08:29:42;20.10;;;11.02;;
70169;SDS011;57543;45.442;9.212;2022-10-19T08:32:46;20.60;;;11.80;;
70169;SDS011;57543;45.442;9.212;2022-10-19T08:35:50;28.00;;;12.02;;
70169;SDS011;57543;45.442;9.212;2022-10-19T08:38:53;27.38;;;12.43;;
70169;SDS011;57543;45.442;9.212;2022-10-19T08:42:04;31.95;;;14.60;;
70169;SDS011;57543;45.442;9.212;2022-10-19T08:45:25;28.98;;;14.25;;
70169;SDS011;57543;45.442;9.212;2022-10-19T08:48:31;29.50;;;17.13;;
70169;SDS011;57543;45.442;9.212;2022-10-19T08:51:38;25.48;;;14.48;;
70169;SDS011;57543;45.442;9.212;2022-10-19T08:54:49;32.92;;;16.77;;
70169;SDS011;57543;45.442;9.212;2022-10-19T08:57:59;27.95;;;16.55;;
70169;SDS011;57543;45.442;9.212;2022-10-19T09:01:14;25.60;;;15.07;;
70169;SDS011;57543;45.442;9.212;2022-10-19T09:04:35;27.30;;;15.23;;
70169;SDS011;57543;45.442;9.212;2022-10-19T09:07:51;24.65;;;12.90;;
70169;SDS011;57543;45.442;9.212;2022-10-19T09:10:56;24.48;;;13.88;;
70169;SDS011;57543;45.442;9.212;2022-10-19T09:14:34;21.02;;;13.15;;
70169;SDS011;57543;45.442;9.212;2022-10-19T09:17:34;27.02;;;14.57;;
70169;SDS011;57543;45.442;9.212;2022-10-19T09:20:38;28.97;;;14.80;;
70169;SDS011;57543;45.442;9.212;2022-10-19T09:23:47;21.75;;;13.05;;
70169;SDS011;57543;45.442;9.212;2022-10-19T09:26:55;24.25;;;12.85;;
70169;SDS011;57543;45.442;9.212;2022-10-19T09:30:02;25.70;;;14.45;;
70169;SDS011;57543;45.442;9.212;2022-10-19T09:33:10;25.00;;;13.57;;
70169;SDS011;57543;45.442;9.212;2022-10-19T09:36:39;24.63;;;13.13;;
70169;SDS011;57543;45.442;9.212;2022-10-19T09:39:46;29.20;;;16.23;;
70169;SDS011;57543;45.442;9.212;2022-10-19T09:42:50;31.42;;;17.48;;
70169;SDS011;57543;45.442;9.212;2022-10-19T09:46:02;27.38;;;15.70;;
70169;SDS011;57543;45.442;9.212;2022-10-19T09:49:18;35.08;;;18.05;;
70169;SDS011;57543;45.442;9.212;2022-10-19T09:52:41;28.07;;;15.70;;
70169;SDS011;57543;45.442;9.212;2022-10-19T09:55:46;31.52;;;17.98;;
70169;SDS011;57543;45.442;9.212;2022-10-19T09:58:55;30.95;;;17.38;;
70169;SDS011;57543;45.442;9.212;2022-10-19T10:02:14;30.88;;;16.13;;
70169;SDS011;57543;45.442;9.212;2022-10-19T10:05:30;27.98;;;15.45;;
70169;SDS011;57543;45.442;9.212;2022-10-19T10:08:43;28.87;;;16.47;;
70169;SDS011;57543;45.442;9.212;2022-10-19T10:12:00;32.33;;;17.80;;
70169;SDS011;57543;45.442;9.212;2022-10-19T10:15:06;32.05;;;18.65;;
70169;SDS011;57543;45.442;9.212;2022-10-19T10:18:15;30.90;;;18.10;;
70169;SDS011;57543;45.442;9.212;2022-10-19T10:24:27;33.97;;;20.17;;
70169;SDS011;57543;45.442;9.212;2022-10-19T10:27:33;33.13;;;20.10;;
70169;SDS011;57543;45.442;9.212;2022-10-19T10:30:39;32.70;;;17.75;;
70169;SDS011;57543;45.442;9.212;2022-10-19T10:33:43;29.52;;;16.15;;
70169;SDS011;57543;45.442;9.212;2022-10-19T10:36:56;33.00;;;18.05;;
70169;SDS011;57543;45.442;9.212;2022-10-19T10:40:00;34.33;;;20.03;;
70169;SDS011;57543;45.442;9.212;2022-10-19T10:43:11;35.30;;;19.90;;
70169;SDS011;57543;45.442;9.212;2022-10-19T10:46:20;35.80;;;20.13;;
70169;SDS011;57543;45.442;9.212;2022-10-19T10:49:36;35.03;;;19.70;;
70169;SDS011;57543;45.442;9.212;2022-10-19T10:52:40;40.70;;;22.00;;
70169;SDS011;57543;45.442;9.212;2022-10-19T10:56:00;41.87;;;25.20;;
70169;SDS011;57543;45.442;9.212;2022-10-19T10:59:04;42.05;;;20.35;;
70169;SDS011;57543;45.442;9.212;2022-10-19T11:05:57;30.45;;;18.75;;
70169;SDS011;57543;45.442;9.212;2022-10-19T11:09:15;32.13;;;19.65;;
70169;SDS011;57543;45.442;9.212;2022-10-19T11:12:30;30.90;;;18.93;;
70169;SDS011;57543;45.442;9.212;2022-10-19T11:29:18;30.23;;;17.80;;
70169;SDS011;57543;45.442;9.212;2022-10-19T11:45:19;28.30;;;17.67;;
70169;SDS011;57543;45.442;9.212;2022-10-19T11:48:42;37.60;;;22.20;;
70169;SDS011;57543;45.442;9.212;2022-10-19T11:52:15;32.05;;;20.05;;
70169;SDS011;57543;45.442;9.212;2022-10-19T11:58:53;32.78;;;18.45;;
70169;SDS011;57543;45.442;9.212;2022-10-19T12:02:38;45.23;;;24.93;;
70169;SDS011;57543;45.442;9.212;2022-10-19T12:10:11;30.33;;;18.02;;
70169;SDS011;57543;45.442;9.212;2022-10-19T12:13:20;34.97;;;20.90;;
70169;SDS011;57543;45.442;9.212;2022-10-19T12:16:34;35.08;;;17.80;;
70169;SDS011;57543;45.442;9.212;2022-10-19T12:19:43;30.80;;;18.33;;
70169;SDS011;57543;45.442;9.212;2022-10-19T12:22:51;29.92;;;17.42;;
70169;SDS011;57543;45.442;9.212;2022-10-19T12:25:56;31.48;;;17.10;;
70169;SDS011;57543;45.442;9.212;2022-10-19T12:29:02;34.42;;;18.65;;
70169;SDS011;57543;45.442;9.212;2022-10-19T12:32:32;26.08;;;16.55;;
70169;SDS011;57543;45.442;9.212;2022-10-19T12:55:37;28.70;;;16.20;;
70169;SDS011;57543;45.442;9.212;2022-10-19T13:01:45;24.48;;;13.98;;
70169;SDS011;57543;45.442;9.212;2022-10-19T13:04:53;29.20;;;16.60;;
70169;SDS011;57543;45.442;9.212;2022-10-19T13:07:57;23.13;;;13.93;;
70169;SDS011;57543;45.442;9.212;2022-10-19T13:11:06;33.03;;;18.70;;
70169;SDS011;57543;45.442;9.212;2022-10-19T13:17:46;27.40;;;15.27;;
70169;SDS011;57543;45.442;9.212;2022-10-19T13:20:52;26.67;;;15.85;;
70169;SDS011;57543;45.442;9.212;2022-10-19T13:23:58;29.77;;;17.53;;
70169;SDS011;57543;45.442;9.212;2022-10-19T13:27:25;34.08;;;19.65;;
70169;SDS011;57543;45.442;9.212;2022-10-19T13:33:43;26.85;;;15.82;;
70169;SDS011;57543;45.442;9.212;2022-10-19T13:36:58;37.55;;;21.50;;
70169;SDS011;57543;45.442;9.212;2022-10-19T13:40:09;34.20;;;18.87;;
70169;SDS011;57543;45.442;9.212;2022-10-19T13:43:22;31.50;;;18.13;;
70169;SDS011;57543;45.442;9.212;2022-10-19T13:55:56;31.53;;;18.37;;
70169;SDS011;57543;45.442;9.212;2022-10-19T14:12:44;30.47;;;17.27;;
70169;SDS011;57543;45.442;9.212;2022-10-19T14:15:50;26.95;;;15.90;;
70169;SDS011;57543;45.442;9.212;2022-10-19T14:18:55;32.40;;;18.27;;
70169;SDS011;57543;45.442;9.212;2022-10-19T14:22:00;32.95;;;17.27;;
70169;SDS011;57543;45.442;9.212;2022-10-19T14:25:23;28.70;;;17.83;;
70169;SDS011;57543;45.442;9.212;2022-10-19T14:28:29;29.93;;;17.70;;
70169;SDS011;57543;45.442;9.212;2022-10-19T14:31:34;35.08;;;21.25;;
70169;SDS011;57543;45.442;9.212;2022-10-19T14:34:40;27.17;;;15.68;;
70169;SDS011;57543;45.442;9.212;2022-10-19T14:37:44;38.90;;;21.50;;
70169;SDS011;57543;45.442;9.212;2022-10-19T14:40:48;36.15;;;21.50;;
70169;SDS011;57543;45.442;9.212;2022-10-19T14:43:53;36.43;;;21.43;;
70169;SDS011;57543;45.442;9.212;2022-10-19T14:46:59;32.25;;;17.75;;
70169;SDS011;57543;45.442;9.212;2022-10-19T14:50:03;32.83;;;19.33;;
70169;SDS011;57543;45.442;9.212;2022-10-19T15:00:13;34.43;;;18.43;;
70169;SDS011;57543;45.442;9.212;2022-10-19T15:03:30;31.23;;;18.25;;
70169;SDS011;57543;45.442;9.212;2022-10-19T15:06:34;32.60;;;19.88;;
70169;SDS011;57543;45.442;9.212;2022-10-19T15:09:38;30.00;;;16.98;;
70169;SDS011;57543;45.442;9.212;2022-10-19T15:12:50;31.35;;;18.55;;
70169;SDS011;57543;45.442;9.212;2022-10-19T15:15:59;29.20;;;16.50;;
70169;SDS011;57543;45.442;9.212;2022-10-19T15:19:04;30.73;;;15.85;;
70169;SDS011;57543;45.442;9.212;2022-10-19T15:22:13;25.75;;;15.07;;
70169;SDS011;57543;45.442;9.212;2022-10-19T15:28:38;27.35;;;14.82;;
70169;SDS011;57543;45.442;9.212;2022-10-19T15:31:42;30.37;;;16.63;;
70169;SDS011;57543;45.442;9.212;2022-10-19T15:34:46;26.40;;;16.35;;
70169;SDS011;57543;45.442;9.212;2022-10-19T15:37:49;31.25;;;18.88;;
70169;SDS011;57543;45.442;9.212;2022-10-19T15:41:01;24.90;;;13.55;;
70169;SDS011;57543;45.442;9.212;2022-10-19T15:44:27;24.23;;;13.60;;
70169;SDS011;57543;45.442;9.212;2022-10-19T15:47:44;27.40;;;14.97;;
70169;SDS011;57543;45.442;9.212;2022-10-19T15:54:25;30.50;;;17.60;;
70169;SDS011;57543;45.442;9.212;2022-10-19T15:57:33;28.33;;;15.43;;
70169;SDS011;57543;45.442;9.212;2022-10-19T16:00:39;30.85;;;17.45;;
70169;SDS011;57543;45.442;9.212;2022-10-19T16:03:44;25.17;;;14.53;;
70169;SDS011;57543;45.442;9.212;2022-10-19T16:06:47;32.40;;;18.13;;
70169;SDS011;57543;45.442;9.212;2022-10-19T16:09:51;30.27;;;17.98;;
70169;SDS011;57543;45.442;9.212;2022-10-19T16:12:55;28.73;;;16.23;;
70169;SDS011;57543;45.442;9.212;2022-10-19T16:16:01;30.02;;;16.58;;
70169;SDS011;57543;45.442;9.212;2022-10-19T16:19:09;28.37;;;16.20;;
70169;SDS011;57543;45.442;9.212;2022-10-19T16:22:14;29.17;;;17.38;;
70169;SDS011;57543;45.442;9.212;2022-10-19T16:25:18;36.13;;;17.58;;
70169;SDS011;57543;45.442;9.212;2022-10-19T16:28:22;30.50;;;17.33;;
70169;SDS011;57543;45.442;9.212;2022-10-19T16:31:25;29.55;;;17.42;;
70169;SDS011;57543;45.442;9.212;2022-10-19T16:34:29;29.97;;;18.43;;
70169;SDS011;57543;45.442;9.212;2022-10-19T16:37:33;32.90;;;17.40;;
70169;SDS011;57543;45.442;9.212;2022-10-19T16:40:37;29.27;;;16.98;;
70169;SDS011;57543;45.442;9.212;2022-10-19T16:43:41;27.40;;;15.98;;
70169;SDS011;57543;45.442;9.212;2022-10-19T16:46:45;31.65;;;17.63;;
70169;SDS011;57543;45.442;9.212;2022-10-19T16:49:52;35.37;;;18.00;;
70169;SDS011;57543;45.442;9.212;2022-10-19T16:53:05;31.98;;;18.05;;
70169;SDS011;57543;45.442;9.212;2022-10-19T16:56:12;33.75;;;19.70;;
70169;SDS011;57543;45.442;9.212;2022-10-19T16:59:17;38.25;;;20.40;;
70169;SDS011;57543;45.442;9.212;2022-10-19T17:02:21;34.72;;;19.35;;
70169;SDS011;57543;45.442;9.212;2022-10-19T17:05:27;35.80;;;20.10;;
70169;SDS011;57543;45.442;9.212;2022-10-19T17:08:31;36.08;;;20.65;;
70169;SDS011;57543;45.442;9.212;2022-10-19T17:11:39;39.05;;;21.40;;
70169;SDS011;57543;45.442;9.212;2022-10-19T17:14:46;35.40;;;19.67;;
70169;SDS011;57543;45.442;9.212;2022-10-19T17:17:53;34.35;;;19.83;;
70169;SDS011;57543;45.442;9.212;2022-10-19T17:21:02;30.97;;;17.23;;
70169;SDS011;57543;45.442;9.212;2022-10-19T17:24:18;38.35;;;19.55;;
70169;SDS011;57543;45.442;9.212;2022-10-19T17:27:25;33.78;;;18.65;;
70169;SDS011;57543;45.442;9.212;2022-10-19T17:30:29;34.83;;;19.92;;
70169;SDS011;57543;45.442;9.212;2022-10-19T17:33:33;37.40;;;19.85;;
70169;SDS011;57543;45.442;9.212;2022-10-19T17:36:39;37.73;;;20.20;;
70169;SDS011;57543;45.442;9.212;2022-10-19T17:39:44;37.58;;;20.23;;
70169;SDS011;57543;45.442;9.212;2022-10-19T17:42:48;35.88;;;19.83;;
70169;SDS011;57543;45.442;9.212;2022-10-19T17:46:01;37.97;;;21.35;;
70169;SDS011;57543;45.442;9.212;2022-10-19T17:49:07;39.60;;;22.00;;
70169;SDS011;57543;45.442;9.212;2022-10-19T17:52:12;35.43;;;21.57;;
70169;SDS011;57543;45.442;9.212;2022-10-19T17:55:16;37.00;;;20.42;;
70169;SDS011;57543;45.442;9.212;2022-10-19T17:58:20;39.10;;;22.08;;
70169;SDS011;57543;45.442;9.212;2022-10-19T18:01:24;38.65;;;21.75;;
70169;SDS011;57543;45.442;9.212;2022-10-19T18:04:28;41.72;;;23.60;;
70169;SDS011;57543;45.442;9.212;2022-10-19T18:07:32;40.83;;;22.33;;
70169;SDS011;57543;45.442;9.212;2022-10-19T18:10:36;41.65;;;23.17;;
70169;SDS011;57543;45.442;9.212;2022-10-19T18:13:40;44.13;;;23.40;;
70169;SDS011;57543;45.442;9.212;2022-10-19T18:16:44;43.33;;;23.48;;
70169;SDS011;57543;45.442;9.212;2022-10-19T18:19:48;44.10;;;24.45;;
70169;SDS011;57543;45.442;9.212;2022-10-19T18:22:52;44.93;;;22.87;;
70169;SDS011;57543;45.442;9.212;2022-10-19T18:26:03;43.25;;;24.15;;
70169;SDS011;57543;45.442;9.212;2022-10-19T18:29:22;38.47;;;21.80;;
70169;SDS011;57543;45.442;9.212;2022-10-19T18:32:27;45.88;;;23.92;;
70169;SDS011;57543;45.442;9.212;2022-10-19T18:35:36;42.92;;;23.45;;
70169;SDS011;57543;45.442;9.212;2022-10-19T18:38:41;44.50;;;24.73;;
70169;SDS011;57543;45.442;9.212;2022-10-19T18:41:44;46.78;;;24.70;;
70169;SDS011;57543;45.442;9.212;2022-10-19T18:44:48;45.13;;;24.23;;
70169;SDS011;57543;45.442;9.212;2022-10-19T18:47:51;48.47;;;25.25;;
70169;SDS011;57543;45.442;9.212;2022-10-19T18:50:55;46.92;;;23.83;;
70169;SDS011;57543;45.442;9.212;2022-10-19T18:53:59;44.87;;;25.40;;
70169;SDS011;57543;45.442;9.212;2022-10-19T18:57:03;45.38;;;24.58;;
70169;SDS011;57543;45.442;9.212;2022-10-19T19:00:07;45.17;;;25.50;;
70169;SDS011;57543;45.442;9.212;2022-10-19T19:03:12;47.05;;;24.83;;
70169;SDS011;57543;45.442;9.212;2022-10-19T19:06:22;45.25;;;24.30;;
70169;SDS011;57543;45.442;9.212;2022-10-19T19:09:33;50.70;;;26.03;;
70169;SDS011;57543;45.442;9.212;2022-10-19T19:12:42;49.70;;;26.08;;
70169;SDS011;57543;45.442;9.212;2022-10-19T19:15:56;48.80;;;25.35;;
70169;SDS011;57543;45.442;9.212;2022-10-19T19:19:00;52.50;;;26.98;;
70169;SDS011;57543;45.442;9.212;2022-10-19T19:22:04;52.78;;;26.27;;
70169;SDS011;57543;45.442;9.212;2022-10-19T19:25:09;51.97;;;27.27;;
70169;SDS011;57543;45.442;9.212;2022-10-19T19:28:13;50.00;;;26.50;;
70169;SDS011;57543;45.442;9.212;2022-10-19T19:31:17;50.97;;;26.33;;
70169;SDS011;57543;45.442;9.212;2022-10-19T19:34:21;49.10;;;26.55;;
70169;SDS011;57543;45.442;9.212;2022-10-19T19:37:24;53.10;;;27.63;;
70169;SDS011;57543;45.442;9.212;2022-10-19T19:40:28;49.83;;;26.17;;
70169;SDS011;57543;45.442;9.212;2022-10-19T19:43:32;48.83;;;26.98;;
70169;SDS011;57543;45.442;9.212;2022-10-19T19:46:38;50.65;;;26.17;;
70169;SDS011;57543;45.442;9.212;2022-10-19T19:49:42;52.40;;;27.20;;
70169;SDS011;57543;45.442;9.212;2022-10-19T19:52:46;52.42;;;27.80;;
70169;SDS011;57543;45.442;9.212;2022-10-19T19:55:50;52.77;;;28.43;;
70169;SDS011;57543;45.442;9.212;2022-10-19T19:58:54;51.85;;;26.45;;
70169;SDS011;57543;45.442;9.212;2022-10-19T20:02:00;52.40;;;26.50;;
70169;SDS011;57543;45.442;9.212;2022-10-19T20:05:04;50.90;;;27.88;;
70169;SDS011;57543;45.442;9.212;2022-10-19T20:08:08;52.97;;;27.63;;
70169;SDS011;57543;45.442;9.212;2022-10-19T20:11:12;53.97;;;27.90;;
70169;SDS011;57543;45.442;9.212;2022-10-19T20:14:18;53.35;;;27.15;;
70169;SDS011;57543;45.442;9.212;2022-10-19T20:17:22;53.55;;;28.33;;
70169;SDS011;57543;45.442;9.212;2022-10-19T20:20:27;53.85;;;27.20;;